sensor_id;sensor_type;location;lat;lon;timestamp;P1;durP1;ratioP1;P2;durP2;ratioP2
75682;SDS011;64295;44.772;39.872;2022-10-20T00:01:21;39.95;;;21.83;;
75682;SDS011;64295;44.772;39.872;2022-10-20T00:03:48;38.85;;;20.92;;
75682;SDS011;64295;44.772;39.872;2022-10-20T00:06:25;39.00;;;22.67;;
75682;SDS011;64295;44.772;39.872;2022-10-20T00:08:53;36.72;;;21.17;;
75682;SDS011;64295;44.772;39.872;2022-10-20T00:11:21;37.33;;;21.30;;
75682;SDS011;64295;44.772;39.872;2022-10-20T00:13:48;43.80;;;23.17;;
75682;SDS011;64295;44.772;39.872;2022-10-20T00:16:15;41.13;;;21.55;;
75682;SDS011;64295;44.772;39.872;2022-10-20T00:18:42;50.33;;;26.55;;
75682;SDS011;64295;44.772;39.872;2022-10-20T00:21:11;45.33;;;25.45;;
75682;SDS011;64295;44.772;39.872;2022-10-20T00:23:38;45.45;;;24.48;;
75682;SDS011;64295;44.772;39.872;2022-10-20T00:26:15;42.08;;;25.58;;
75682;SDS011;64295;44.772;39.872;2022-10-20T00:31:12;46.30;;;23.45;;
75682;SDS011;64295;44.772;39.872;2022-10-20T00:33:39;40.80;;;22.05;;
75682;SDS011;64295;44.772;39.872;2022-10-20T00:36:06;46.65;;;24.60;;
75682;SDS011;64295;44.772;39.872;2022-10-20T00:38:33;47.15;;;24.70;;
75682;SDS011;64295;44.772;39.872;2022-10-20T00:41:00;44.53;;;24.48;;
75682;SDS011;64295;44.772;39.872;2022-10-20T00:43:49;46.63;;;25.00;;
75682;SDS011;64295;44.772;39.872;2022-10-20T00:46:24;38.47;;;22.75;;
75682;SDS011;64295;44.772;39.872;2022-10-20T00:49:16;40.83;;;22.88;;
75682;SDS011;64295;44.772;39.872;2022-10-20T00:51:44;40.55;;;21.88;;
75682;SDS011;64295;44.772;39.872;2022-10-20T00:54:12;39.28;;;22.63;;
75682;SDS011;64295;44.772;39.872;2022-10-20T00:56:47;40.53;;;21.25;;
75682;SDS011;64295;44.772;39.872;2022-10-20T00:59:15;42.33;;;23.67;;
75682;SDS011;64295;44.772;39.872;2022-10-20T01:01:45;39.85;;;22.23;;
75682;SDS011;64295;44.772;39.872;2022-10-20T01:04:11;46.47;;;22.83;;
75682;SDS011;64295;44.772;39.872;2022-10-20T01:06:37;41.90;;;22.25;;
75682;SDS011;64295;44.772;39.872;2022-10-20T01:09:04;41.20;;;22.75;;
75682;SDS011;64295;44.772;39.872;2022-10-20T01:15:08;46.33;;;23.55;;
75682;SDS011;64295;44.772;39.872;2022-10-20T01:29:13;41.17;;;21.33;;
75682;SDS011;64295;44.772;39.872;2022-10-20T01:34:41;36.65;;;19.73;;
75682;SDS011;64295;44.772;39.872;2022-10-20T01:37:28;37.78;;;21.10;;
75682;SDS011;64295;44.772;39.872;2022-10-20T01:40:09;40.05;;;22.00;;
75682;SDS011;64295;44.772;39.872;2022-10-20T01:42:41;34.63;;;20.23;;
75682;SDS011;64295;44.772;39.872;2022-10-20T01:45:09;44.15;;;23.15;;
75682;SDS011;64295;44.772;39.872;2022-10-20T01:47:37;42.53;;;22.25;;
75682;SDS011;64295;44.772;39.872;2022-10-20T01:50:04;37.25;;;20.48;;
75682;SDS011;64295;44.772;39.872;2022-10-20T01:52:31;37.60;;;21.45;;
75682;SDS011;64295;44.772;39.872;2022-10-20T01:54:57;37.63;;;21.38;;
75682;SDS011;64295;44.772;39.872;2022-10-20T02:00:15;38.22;;;20.95;;
75682;SDS011;64295;44.772;39.872;2022-10-20T02:07:53;40.80;;;22.00;;
75682;SDS011;64295;44.772;39.872;2022-10-20T02:10:31;38.78;;;19.73;;
75682;SDS011;64295;44.772;39.872;2022-10-20T02:13:06;39.78;;;22.58;;
75682;SDS011;64295;44.772;39.872;2022-10-20T02:18:04;35.00;;;19.05;;
75682;SDS011;64295;44.772;39.872;2022-10-20T02:20:33;41.22;;;19.90;;
75682;SDS011;64295;44.772;39.872;2022-10-20T02:22:59;32.58;;;18.30;;
75682;SDS011;64295;44.772;39.872;2022-10-20T02:25:29;36.05;;;21.35;;
75682;SDS011;64295;44.772;39.872;2022-10-20T02:27:56;38.10;;;20.13;;
75682;SDS011;64295;44.772;39.872;2022-10-20T02:30:24;40.60;;;20.83;;
75682;SDS011;64295;44.772;39.872;2022-10-20T02:32:50;42.65;;;21.77;;
75682;SDS011;64295;44.772;39.872;2022-10-20T02:35:28;39.85;;;21.23;;
75682;SDS011;64295;44.772;39.872;2022-10-20T02:37:56;36.67;;;18.15;;
75682;SDS011;64295;44.772;39.872;2022-10-20T02:40:22;36.45;;;19.67;;
75682;SDS011;64295;44.772;39.872;2022-10-20T02:42:48;34.63;;;19.52;;
75682;SDS011;64295;44.772;39.872;2022-10-20T02:45:14;37.15;;;20.45;;
75682;SDS011;64295;44.772;39.872;2022-10-20T02:47:41;39.50;;;21.98;;
75682;SDS011;64295;44.772;39.872;2022-10-20T02:50:07;39.25;;;20.20;;
75682;SDS011;64295;44.772;39.872;2022-10-20T02:52:33;38.80;;;20.67;;
75682;SDS011;64295;44.772;39.872;2022-10-20T02:54:59;37.03;;;20.50;;
75682;SDS011;64295;44.772;39.872;2022-10-20T02:57:25;26.25;;;15.35;;
75682;SDS011;64295;44.772;39.872;2022-10-20T02:59:51;36.15;;;19.77;;
75682;SDS011;64295;44.772;39.872;2022-10-20T03:02:17;40.17;;;21.83;;
75682;SDS011;64295;44.772;39.872;2022-10-20T03:04:43;39.92;;;20.55;;
75682;SDS011;64295;44.772;39.872;2022-10-20T03:07:09;35.75;;;19.95;;
75682;SDS011;64295;44.772;39.872;2022-10-20T03:09:37;38.67;;;21.60;;
75682;SDS011;64295;44.772;39.872;2022-10-20T03:12:03;34.42;;;19.20;;
75682;SDS011;64295;44.772;39.872;2022-10-20T03:14:29;36.35;;;20.65;;
75682;SDS011;64295;44.772;39.872;2022-10-20T03:16:55;36.17;;;19.40;;
75682;SDS011;64295;44.772;39.872;2022-10-20T03:19:21;32.80;;;19.13;;
75682;SDS011;64295;44.772;39.872;2022-10-20T03:21:47;30.88;;;18.13;;
75682;SDS011;64295;44.772;39.872;2022-10-20T03:24:14;35.75;;;19.70;;
75682;SDS011;64295;44.772;39.872;2022-10-20T03:26:40;29.85;;;18.40;;
75682;SDS011;64295;44.772;39.872;2022-10-20T03:29:06;37.35;;;20.13;;
75682;SDS011;64295;44.772;39.872;2022-10-20T03:31:32;34.70;;;19.65;;
75682;SDS011;64295;44.772;39.872;2022-10-20T03:33:58;31.23;;;18.33;;
75682;SDS011;64295;44.772;39.872;2022-10-20T03:36:24;32.75;;;18.13;;
75682;SDS011;64295;44.772;39.872;2022-10-20T03:38:51;34.75;;;20.38;;
75682;SDS011;64295;44.772;39.872;2022-10-20T03:41:17;33.65;;;18.98;;
75682;SDS011;64295;44.772;39.872;2022-10-20T03:43:43;34.63;;;20.08;;
75682;SDS011;64295;44.772;39.872;2022-10-20T03:46:09;32.03;;;17.88;;
75682;SDS011;64295;44.772;39.872;2022-10-20T03:48:36;33.30;;;18.77;;
75682;SDS011;64295;44.772;39.872;2022-10-20T03:51:04;30.85;;;19.00;;
75682;SDS011;64295;44.772;39.872;2022-10-20T03:53:31;37.38;;;18.75;;
75682;SDS011;64295;44.772;39.872;2022-10-20T03:55:57;31.13;;;18.85;;
75682;SDS011;64295;44.772;39.872;2022-10-20T03:58:23;35.28;;;19.05;;
75682;SDS011;64295;44.772;39.872;2022-10-20T04:00:49;32.75;;;18.23;;
75682;SDS011;64295;44.772;39.872;2022-10-20T04:03:15;34.58;;;18.35;;
75682;SDS011;64295;44.772;39.872;2022-10-20T04:05:41;34.00;;;18.88;;
75682;SDS011;64295;44.772;39.872;2022-10-20T04:08:07;33.65;;;19.30;;
75682;SDS011;64295;44.772;39.872;2022-10-20T04:10:33;35.88;;;18.88;;
75682;SDS011;64295;44.772;39.872;2022-10-20T04:12:59;27.50;;;15.80;;
75682;SDS011;64295;44.772;39.872;2022-10-20T04:15:26;26.48;;;14.70;;
75682;SDS011;64295;44.772;39.872;2022-10-20T04:17:52;17.48;;;10.80;;
75682;SDS011;64295;44.772;39.872;2022-10-20T04:20:18;13.13;;;8.73;;
75682;SDS011;64295;44.772;39.872;2022-10-20T04:22:44;15.38;;;9.20;;
75682;SDS011;64295;44.772;39.872;2022-10-20T04:25:11;14.02;;;8.43;;
75682;SDS011;64295;44.772;39.872;2022-10-20T04:27:37;15.60;;;9.60;;
75682;SDS011;64295;44.772;39.872;2022-10-20T04:30:04;13.75;;;8.65;;
75682;SDS011;64295;44.772;39.872;2022-10-20T04:32:31;12.82;;;7.97;;
75682;SDS011;64295;44.772;39.872;2022-10-20T04:34:57;11.65;;;6.60;;
75682;SDS011;64295;44.772;39.872;2022-10-20T04:37:23;11.95;;;6.57;;
75682;SDS011;64295;44.772;39.872;2022-10-20T04:39:48;11.63;;;7.07;;
75682;SDS011;64295;44.772;39.872;2022-10-20T04:42:18;9.43;;;6.35;;
75682;SDS011;64295;44.772;39.872;2022-10-20T04:44:44;9.75;;;6.18;;
75682;SDS011;64295;44.772;39.872;2022-10-20T04:47:10;12.43;;;6.72;;
75682;SDS011;64295;44.772;39.872;2022-10-20T04:49:36;11.30;;;6.57;;
75682;SDS011;64295;44.772;39.872;2022-10-20T04:52:04;9.57;;;5.40;;
75682;SDS011;64295;44.772;39.872;2022-10-20T04:54:30;11.10;;;7.13;;
75682;SDS011;64295;44.772;39.872;2022-10-20T04:56:56;11.27;;;5.78;;
75682;SDS011;64295;44.772;39.872;2022-10-20T04:59:22;13.57;;;6.40;;
75682;SDS011;64295;44.772;39.872;2022-10-20T05:01:48;11.73;;;6.68;;
75682;SDS011;64295;44.772;39.872;2022-10-20T05:04:14;9.43;;;6.85;;
75682;SDS011;64295;44.772;39.872;2022-10-20T05:06:46;8.77;;;5.47;;
75682;SDS011;64295;44.772;39.872;2022-10-20T05:09:13;12.15;;;5.50;;
75682;SDS011;64295;44.772;39.872;2022-10-20T05:11:40;11.07;;;5.38;;
75682;SDS011;64295;44.772;39.872;2022-10-20T05:14:06;9.57;;;5.60;;
75682;SDS011;64295;44.772;39.872;2022-10-20T05:16:32;9.77;;;5.32;;
75682;SDS011;64295;44.772;39.872;2022-10-20T05:18:58;11.18;;;6.30;;
75682;SDS011;64295;44.772;39.872;2022-10-20T05:21:25;13.85;;;9.15;;
75682;SDS011;64295;44.772;39.872;2022-10-20T05:26:34;10.63;;;5.78;;
75682;SDS011;64295;44.772;39.872;2022-10-20T05:29:02;8.43;;;5.38;;
75682;SDS011;64295;44.772;39.872;2022-10-20T05:31:35;8.13;;;5.13;;
75682;SDS011;64295;44.772;39.872;2022-10-20T05:34:06;9.68;;;6.47;;
75682;SDS011;64295;44.772;39.872;2022-10-20T05:36:32;10.68;;;5.80;;
75682;SDS011;64295;44.772;39.872;2022-10-20T05:38:58;10.55;;;5.93;;
75682;SDS011;64295;44.772;39.872;2022-10-20T05:41:25;11.80;;;5.75;;
75682;SDS011;64295;44.772;39.872;2022-10-20T05:43:56;8.50;;;5.35;;
75682;SDS011;64295;44.772;39.872;2022-10-20T05:46:34;10.18;;;5.90;;
75682;SDS011;64295;44.772;39.872;2022-10-20T05:49:02;13.60;;;9.20;;
75682;SDS011;64295;44.772;39.872;2022-10-20T05:51:30;7.88;;;5.82;;
75682;SDS011;64295;44.772;39.872;2022-10-20T05:53:58;11.25;;;6.57;;
75682;SDS011;64295;44.772;39.872;2022-10-20T05:56:25;9.93;;;6.47;;
75682;SDS011;64295;44.772;39.872;2022-10-20T05:58:51;11.65;;;8.43;;
75682;SDS011;64295;44.772;39.872;2022-10-20T06:01:25;15.18;;;10.73;;
75682;SDS011;64295;44.772;39.872;2022-10-20T06:04:02;9.15;;;6.78;;
75682;SDS011;64295;44.772;39.872;2022-10-20T06:06:29;10.63;;;7.43;;
75682;SDS011;64295;44.772;39.872;2022-10-20T06:08:56;12.07;;;7.05;;
75682;SDS011;64295;44.772;39.872;2022-10-20T06:11:23;10.10;;;5.82;;
75682;SDS011;64295;44.772;39.872;2022-10-20T06:13:50;14.18;;;7.75;;
75682;SDS011;64295;44.772;39.872;2022-10-20T06:16:17;12.27;;;7.03;;
75682;SDS011;64295;44.772;39.872;2022-10-20T06:18:45;11.32;;;6.28;;
75682;SDS011;64295;44.772;39.872;2022-10-20T06:21:13;7.93;;;5.15;;
75682;SDS011;64295;44.772;39.872;2022-10-20T06:23:43;11.55;;;6.38;;
75682;SDS011;64295;44.772;39.872;2022-10-20T06:26:10;7.72;;;5.72;;
75682;SDS011;64295;44.772;39.872;2022-10-20T06:28:39;11.05;;;6.10;;
75682;SDS011;64295;44.772;39.872;2022-10-20T06:31:16;10.18;;;6.40;;
75682;SDS011;64295;44.772;39.872;2022-10-20T06:33:44;10.15;;;5.57;;
75682;SDS011;64295;44.772;39.872;2022-10-20T06:36:11;7.90;;;6.07;;
75682;SDS011;64295;44.772;39.872;2022-10-20T06:38:40;9.80;;;5.32;;
75682;SDS011;64295;44.772;39.872;2022-10-20T06:41:08;7.15;;;4.88;;
75682;SDS011;64295;44.772;39.872;2022-10-20T06:43:38;9.95;;;5.50;;
75682;SDS011;64295;44.772;39.872;2022-10-20T06:46:05;8.43;;;5.70;;
75682;SDS011;64295;44.772;39.872;2022-10-20T06:48:33;10.60;;;5.35;;
75682;SDS011;64295;44.772;39.872;2022-10-20T06:51:04;8.43;;;5.88;;
75682;SDS011;64295;44.772;39.872;2022-10-20T06:53:33;8.80;;;5.55;;
75682;SDS011;64295;44.772;39.872;2022-10-20T06:56:04;10.93;;;6.63;;
75682;SDS011;64295;44.772;39.872;2022-10-20T06:58:42;9.05;;;5.10;;
75682;SDS011;64295;44.772;39.872;2022-10-20T07:01:13;9.73;;;5.60;;
75682;SDS011;64295;44.772;39.872;2022-10-20T07:03:42;11.45;;;5.78;;
75682;SDS011;64295;44.772;39.872;2022-10-20T07:06:09;8.43;;;5.65;;
75682;SDS011;64295;44.772;39.872;2022-10-20T07:08:41;10.10;;;5.63;;
75682;SDS011;64295;44.772;39.872;2022-10-20T07:11:12;12.15;;;6.30;;
75682;SDS011;64295;44.772;39.872;2022-10-20T07:13:40;21.40;;;13.50;;
75682;SDS011;64295;44.772;39.872;2022-10-20T07:16:08;11.27;;;7.60;;
75682;SDS011;64295;44.772;39.872;2022-10-20T07:18:36;13.55;;;7.65;;
75682;SDS011;64295;44.772;39.872;2022-10-20T07:21:07;12.15;;;7.05;;
75682;SDS011;64295;44.772;39.872;2022-10-20T07:23:35;12.02;;;7.03;;
75682;SDS011;64295;44.772;39.872;2022-10-20T07:26:09;9.27;;;5.40;;
75682;SDS011;64295;44.772;39.872;2022-10-20T07:28:38;11.57;;;6.00;;
75682;SDS011;64295;44.772;39.872;2022-10-20T07:31:11;8.95;;;6.10;;
75682;SDS011;64295;44.772;39.872;2022-10-20T07:33:39;12.23;;;6.95;;
75682;SDS011;64295;44.772;39.872;2022-10-20T07:36:12;11.38;;;6.13;;
75682;SDS011;64295;44.772;39.872;2022-10-20T07:38:40;9.63;;;5.50;;
75682;SDS011;64295;44.772;39.872;2022-10-20T07:41:06;10.57;;;7.10;;
75682;SDS011;64295;44.772;39.872;2022-10-20T07:43:33;5.65;;;4.68;;
75682;SDS011;64295;44.772;39.872;2022-10-20T07:46:00;8.15;;;5.00;;
75682;SDS011;64295;44.772;39.872;2022-10-20T07:48:26;9.38;;;4.53;;
75682;SDS011;64295;44.772;39.872;2022-10-20T07:50:52;5.88;;;4.63;;
75682;SDS011;64295;44.772;39.872;2022-10-20T07:53:18;7.63;;;4.57;;
75682;SDS011;64295;44.772;39.872;2022-10-20T07:55:44;7.43;;;4.50;;
75682;SDS011;64295;44.772;39.872;2022-10-20T07:58:10;5.72;;;3.67;;
75682;SDS011;64295;44.772;39.872;2022-10-20T08:00:39;6.85;;;3.88;;
75682;SDS011;64295;44.772;39.872;2022-10-20T08:03:07;6.20;;;4.07;;
75682;SDS011;64295;44.772;39.872;2022-10-20T08:05:36;13.07;;;7.60;;
75682;SDS011;64295;44.772;39.872;2022-10-20T08:10:29;7.32;;;4.55;;
75682;SDS011;64295;44.772;39.872;2022-10-20T08:12:55;5.40;;;3.80;;
75682;SDS011;64295;44.772;39.872;2022-10-20T08:15:21;6.40;;;3.78;;
75682;SDS011;64295;44.772;39.872;2022-10-20T08:17:47;7.82;;;4.13;;
75682;SDS011;64295;44.772;39.872;2022-10-20T08:20:13;9.75;;;3.97;;
75682;SDS011;64295;44.772;39.872;2022-10-20T08:22:39;5.72;;;4.05;;
75682;SDS011;64295;44.772;39.872;2022-10-20T08:25:10;7.13;;;4.40;;
75682;SDS011;64295;44.772;39.872;2022-10-20T08:27:40;7.05;;;4.85;;
75682;SDS011;64295;44.772;39.872;2022-10-20T08:30:10;7.40;;;4.70;;
75682;SDS011;64295;44.772;39.872;2022-10-20T08:32:36;7.53;;;4.88;;
75682;SDS011;64295;44.772;39.872;2022-10-20T08:35:03;73.90;;;47.15;;
75682;SDS011;64295;44.772;39.872;2022-10-20T08:37:30;20.42;;;11.68;;
75682;SDS011;64295;44.772;39.872;2022-10-20T08:39:56;10.98;;;6.68;;
75682;SDS011;64295;44.772;39.872;2022-10-20T08:42:21;20.13;;;10.10;;
75682;SDS011;64295;44.772;39.872;2022-10-20T08:44:48;13.88;;;7.65;;
75682;SDS011;64295;44.772;39.872;2022-10-20T08:47:23;14.93;;;8.00;;
75682;SDS011;64295;44.772;39.872;2022-10-20T08:49:55;13.88;;;9.10;;
75682;SDS011;64295;44.772;39.872;2022-10-20T08:52:23;17.13;;;10.45;;
75682;SDS011;64295;44.772;39.872;2022-10-20T08:54:52;18.98;;;10.10;;
75682;SDS011;64295;44.772;39.872;2022-10-20T08:57:22;18.58;;;11.75;;
75682;SDS011;64295;44.772;39.872;2022-10-20T08:59:53;19.13;;;11.02;;
75682;SDS011;64295;44.772;39.872;2022-10-20T09:02:20;22.42;;;11.40;;
75682;SDS011;64295;44.772;39.872;2022-10-20T09:04:51;20.88;;;12.45;;
75682;SDS011;64295;44.772;39.872;2022-10-20T09:07:21;20.70;;;11.90;;
75682;SDS011;64295;44.772;39.872;2022-10-20T09:09:56;22.45;;;11.40;;
75682;SDS011;64295;44.772;39.872;2022-10-20T09:12:48;16.92;;;9.70;;
75682;SDS011;64295;44.772;39.872;2022-10-20T09:15:16;26.73;;;16.35;;
75682;SDS011;64295;44.772;39.872;2022-10-20T09:18:29;14.40;;;9.18;;
75682;SDS011;64295;44.772;39.872;2022-10-20T09:20:41;11.73;;;6.65;;
75682;SDS011;64295;44.772;39.872;2022-10-20T09:23:22;10.20;;;6.20;;
75682;SDS011;64295;44.772;39.872;2022-10-20T09:25:52;9.65;;;5.78;;
75682;SDS011;64295;44.772;39.872;2022-10-20T09:28:24;12.55;;;8.45;;
75682;SDS011;64295;44.772;39.872;2022-10-20T09:30:52;13.90;;;6.57;;
75682;SDS011;64295;44.772;39.872;2022-10-20T09:33:30;11.57;;;8.07;;
75682;SDS011;64295;44.772;39.872;2022-10-20T09:36:16;13.10;;;8.15;;
75682;SDS011;64295;44.772;39.872;2022-10-20T09:38:44;12.27;;;7.43;;
75682;SDS011;64295;44.772;39.872;2022-10-20T09:41:16;14.48;;;9.65;;
75682;SDS011;64295;44.772;39.872;2022-10-20T09:44:21;14.85;;;8.88;;
75682;SDS011;64295;44.772;39.872;2022-10-20T09:46:48;16.73;;;9.25;;
75682;SDS011;64295;44.772;39.872;2022-10-20T09:49:22;15.68;;;8.77;;
75682;SDS011;64295;44.772;39.872;2022-10-20T09:51:50;13.55;;;8.43;;
75682;SDS011;64295;44.772;39.872;2022-10-20T09:54:18;17.92;;;10.32;;
75682;SDS011;64295;44.772;39.872;2022-10-20T09:56:47;17.65;;;8.45;;
75682;SDS011;64295;44.772;39.872;2022-10-20T09:59:21;15.15;;;9.50;;
75682;SDS011;64295;44.772;39.872;2022-10-20T10:04:38;16.50;;;9.38;;
75682;SDS011;64295;44.772;39.872;2022-10-20T10:09:57;16.63;;;9.30;;
75682;SDS011;64295;44.772;39.872;2022-10-20T10:12:24;20.40;;;13.77;;
75682;SDS011;64295;44.772;39.872;2022-10-20T10:14:59;28.42;;;18.10;;
75682;SDS011;64295;44.772;39.872;2022-10-20T10:17:28;28.13;;;15.82;;
75682;SDS011;64295;44.772;39.872;2022-10-20T10:19:55;17.40;;;9.88;;
75682;SDS011;64295;44.772;39.872;2022-10-20T10:22:21;28.00;;;10.95;;
75682;SDS011;64295;44.772;39.872;2022-10-20T10:24:48;15.82;;;8.95;;
75682;SDS011;64295;44.772;39.872;2022-10-20T10:27:25;17.50;;;10.07;;
75682;SDS011;64295;44.772;39.872;2022-10-20T10:32:45;17.42;;;9.10;;
75682;SDS011;64295;44.772;39.872;2022-10-20T10:37:57;15.40;;;9.27;;
75682;SDS011;64295;44.772;39.872;2022-10-20T10:40:31;23.83;;;12.57;;
75682;SDS011;64295;44.772;39.872;2022-10-20T10:43:14;19.80;;;12.07;;
75682;SDS011;64295;44.772;39.872;2022-10-20T10:46:07;18.38;;;10.40;;
75682;SDS011;64295;44.772;39.872;2022-10-20T10:48:45;21.05;;;11.85;;
75682;SDS011;64295;44.772;39.872;2022-10-20T10:54:02;16.38;;;9.07;;
75682;SDS011;64295;44.772;39.872;2022-10-20T11:02:10;12.70;;;8.45;;
75682;SDS011;64295;44.772;39.872;2022-10-20T11:11:07;12.23;;;6.45;;
75682;SDS011;64295;44.772;39.872;2022-10-20T11:27:19;10.52;;;5.63;;
75682;SDS011;64295;44.772;39.872;2022-10-20T11:35:42;9.27;;;5.00;;
75682;SDS011;64295;44.772;39.872;2022-10-20T11:43:40;8.10;;;4.85;;
75682;SDS011;64295;44.772;39.872;2022-10-20T11:46:12;8.18;;;4.50;;
75682;SDS011;64295;44.772;39.872;2022-10-20T11:48:43;5.88;;;3.97;;
75682;SDS011;64295;44.772;39.872;2022-10-20T11:56:33;4.97;;;3.47;;
75682;SDS011;64295;44.772;39.872;2022-10-20T11:59:06;5.20;;;3.10;;
75682;SDS011;64295;44.772;39.872;2022-10-20T12:15:50;7.65;;;3.55;;
75682;SDS011;64295;44.772;39.872;2022-10-20T12:18:20;5.20;;;2.80;;
75682;SDS011;64295;44.772;39.872;2022-10-20T12:29:01;3.65;;;2.33;;
75682;SDS011;64295;44.772;39.872;2022-10-20T12:39:52;9.13;;;2.40;;
75682;SDS011;64295;44.772;39.872;2022-10-20T12:44:53;3.35;;;2.00;;
75682;SDS011;64295;44.772;39.872;2022-10-20T12:47:31;4.45;;;2.17;;
75682;SDS011;64295;44.772;39.872;2022-10-20T12:52:30;3.17;;;1.90;;
75682;SDS011;64295;44.772;39.872;2022-10-20T12:57:35;4.03;;;2.45;;
75682;SDS011;64295;44.772;39.872;2022-10-20T13:02:52;3.58;;;2.40;;
75682;SDS011;64295;44.772;39.872;2022-10-20T13:05:24;3.80;;;2.22;;
75682;SDS011;64295;44.772;39.872;2022-10-20T13:24:01;10.88;;;5.38;;
75682;SDS011;64295;44.772;39.872;2022-10-20T13:26:15;12.30;;;7.15;;
75682;SDS011;64295;44.772;39.872;2022-10-20T13:28:48;11.75;;;7.45;;
75682;SDS011;64295;44.772;39.872;2022-10-20T13:50:48;10.05;;;6.20;;
75682;SDS011;64295;44.772;39.872;2022-10-20T13:56:00;7.15;;;4.53;;
75682;SDS011;64295;44.772;39.872;2022-10-20T13:58:29;8.38;;;5.28;;
75682;SDS011;64295;44.772;39.872;2022-10-20T14:00:58;9.60;;;4.82;;
75682;SDS011;64295;44.772;39.872;2022-10-20T14:03:25;5.28;;;4.18;;
75682;SDS011;64295;44.772;39.872;2022-10-20T14:05:52;9.38;;;5.10;;
75682;SDS011;64295;44.772;39.872;2022-10-20T14:08:19;12.07;;;5.72;;
75682;SDS011;64295;44.772;39.872;2022-10-20T14:13:13;11.00;;;5.13;;
75682;SDS011;64295;44.772;39.872;2022-10-20T14:15:46;9.38;;;5.63;;
75682;SDS011;64295;44.772;39.872;2022-10-20T14:18:24;7.47;;;4.82;;
75682;SDS011;64295;44.772;39.872;2022-10-20T14:21:01;8.60;;;5.28;;
75682;SDS011;64295;44.772;39.872;2022-10-20T14:23:39;10.20;;;5.13;;
75682;SDS011;64295;44.772;39.872;2022-10-20T14:26:12;11.93;;;6.07;;
75682;SDS011;64295;44.772;39.872;2022-10-20T14:28:40;10.07;;;5.60;;
75682;SDS011;64295;44.772;39.872;2022-10-20T14:31:11;9.10;;;4.97;;
75682;SDS011;64295;44.772;39.872;2022-10-20T14:33:47;9.55;;;5.45;;
75682;SDS011;64295;44.772;39.872;2022-10-20T14:36:29;9.77;;;4.90;;
75682;SDS011;64295;44.772;39.872;2022-10-20T14:38:56;11.73;;;6.80;;
75682;SDS011;64295;44.772;39.872;2022-10-20T14:41:26;13.15;;;6.28;;
75682;SDS011;64295;44.772;39.872;2022-10-20T14:43:56;15.55;;;7.70;;
75682;SDS011;64295;44.772;39.872;2022-10-20T14:46:30;11.70;;;7.25;;
75682;SDS011;64295;44.772;39.872;2022-10-20T14:48:59;21.33;;;8.48;;
75682;SDS011;64295;44.772;39.872;2022-10-20T14:54:12;21.83;;;10.20;;
75682;SDS011;64295;44.772;39.872;2022-10-20T14:56:54;17.20;;;11.30;;
75682;SDS011;64295;44.772;39.872;2022-10-20T14:59:25;16.33;;;9.60;;
75682;SDS011;64295;44.772;39.872;2022-10-20T15:01:57;19.30;;;10.50;;
75682;SDS011;64295;44.772;39.872;2022-10-20T15:04:50;16.95;;;9.85;;
75682;SDS011;64295;44.772;39.872;2022-10-20T15:07:27;22.15;;;12.52;;
75682;SDS011;64295;44.772;39.872;2022-10-20T15:10:06;21.20;;;10.85;;
75682;SDS011;64295;44.772;39.872;2022-10-20T15:12:42;20.10;;;9.98;;
75682;SDS011;64295;44.772;39.872;2022-10-20T15:23:12;17.73;;;8.45;;
75682;SDS011;64295;44.772;39.872;2022-10-20T15:25:53;19.20;;;10.45;;
75682;SDS011;64295;44.772;39.872;2022-10-20T15:28:38;18.67;;;8.80;;
75682;SDS011;64295;44.772;39.872;2022-10-20T15:33:54;16.95;;;8.75;;
75682;SDS011;64295;44.772;39.872;2022-10-20T15:36:22;15.55;;;7.60;;
75682;SDS011;64295;44.772;39.872;2022-10-20T15:38:53;16.60;;;6.90;;
75682;SDS011;64295;44.772;39.872;2022-10-20T15:41:24;13.07;;;5.97;;
75682;SDS011;64295;44.772;39.872;2022-10-20T15:43:55;14.35;;;7.45;;
75682;SDS011;64295;44.772;39.872;2022-10-20T15:46:26;12.90;;;7.22;;
75682;SDS011;64295;44.772;39.872;2022-10-20T15:48:52;13.18;;;7.00;;
75682;SDS011;64295;44.772;39.872;2022-10-20T15:51:36;13.13;;;6.30;;
75682;SDS011;64295;44.772;39.872;2022-10-20T15:54:05;11.30;;;6.20;;
75682;SDS011;64295;44.772;39.872;2022-10-20T15:56:32;11.57;;;6.60;;
75682;SDS011;64295;44.772;39.872;2022-10-20T15:58:59;15.35;;;7.07;;
75682;SDS011;64295;44.772;39.872;2022-10-20T16:01:25;9.90;;;5.65;;
75682;SDS011;64295;44.772;39.872;2022-10-20T16:03:52;12.98;;;6.25;;
75682;SDS011;64295;44.772;39.872;2022-10-20T16:06:20;12.38;;;6.07;;
75682;SDS011;64295;44.772;39.872;2022-10-20T16:08:47;9.63;;;5.13;;
75682;SDS011;64295;44.772;39.872;2022-10-20T16:11:14;15.65;;;5.70;;
75682;SDS011;64295;44.772;39.872;2022-10-20T16:13:41;7.68;;;4.50;;
75682;SDS011;64295;44.772;39.872;2022-10-20T16:16:09;11.20;;;5.47;;
75682;SDS011;64295;44.772;39.872;2022-10-20T16:18:37;14.20;;;5.60;;
75682;SDS011;64295;44.772;39.872;2022-10-20T16:21:03;11.23;;;5.25;;
75682;SDS011;64295;44.772;39.872;2022-10-20T16:23:30;8.68;;;5.97;;
75682;SDS011;64295;44.772;39.872;2022-10-20T16:25:58;11.07;;;5.90;;
75682;SDS011;64295;44.772;39.872;2022-10-20T16:28:24;9.40;;;4.30;;
75682;SDS011;64295;44.772;39.872;2022-10-20T16:30:59;11.60;;;5.65;;
75682;SDS011;64295;44.772;39.872;2022-10-20T16:33:35;11.95;;;5.40;;
75682;SDS011;64295;44.772;39.872;2022-10-20T16:36:03;12.23;;;4.43;;
75682;SDS011;64295;44.772;39.872;2022-10-20T16:38:31;8.65;;;4.10;;
75682;SDS011;64295;44.772;39.872;2022-10-20T16:40:58;8.57;;;4.53;;
75682;SDS011;64295;44.772;39.872;2022-10-20T16:43:27;9.57;;;4.22;;
75682;SDS011;64295;44.772;39.872;2022-10-20T16:45:53;7.80;;;4.22;;
75682;SDS011;64295;44.772;39.872;2022-10-20T16:48:20;8.63;;;4.35;;
75682;SDS011;64295;44.772;39.872;2022-10-20T16:50:47;8.25;;;3.70;;
75682;SDS011;64295;44.772;39.872;2022-10-20T16:53:13;14.15;;;4.43;;
75682;SDS011;64295;44.772;39.872;2022-10-20T16:55:39;11.15;;;4.50;;
75682;SDS011;64295;44.772;39.872;2022-10-20T16:58:14;10.65;;;5.18;;
75682;SDS011;64295;44.772;39.872;2022-10-20T17:00:40;14.35;;;5.78;;
75682;SDS011;64295;44.772;39.872;2022-10-20T17:03:07;11.05;;;5.63;;
75682;SDS011;64295;44.772;39.872;2022-10-20T17:05:33;13.95;;;7.03;;
75682;SDS011;64295;44.772;39.872;2022-10-20T17:07:59;16.73;;;5.32;;
75682;SDS011;64295;44.772;39.872;2022-10-20T17:10:27;12.60;;;5.82;;
75682;SDS011;64295;44.772;39.872;2022-10-20T17:12:53;11.30;;;5.78;;
75682;SDS011;64295;44.772;39.872;2022-10-20T17:15:22;11.13;;;5.03;;
75682;SDS011;64295;44.772;39.872;2022-10-20T17:17:50;11.77;;;5.55;;
75682;SDS011;64295;44.772;39.872;2022-10-20T17:20:15;10.98;;;4.97;;
75682;SDS011;64295;44.772;39.872;2022-10-20T17:22:41;6.63;;;3.72;;
75682;SDS011;64295;44.772;39.872;2022-10-20T17:25:07;10.18;;;5.38;;
75682;SDS011;64295;44.772;39.872;2022-10-20T17:27:34;9.82;;;4.97;;
75682;SDS011;64295;44.772;39.872;2022-10-20T17:30:00;8.48;;;3.95;;
75682;SDS011;64295;44.772;39.872;2022-10-20T17:32:26;9.25;;;3.38;;
75682;SDS011;64295;44.772;39.872;2022-10-20T17:34:51;12.73;;;4.30;;
75682;SDS011;64295;44.772;39.872;2022-10-20T17:37:18;11.95;;;4.50;;
75682;SDS011;64295;44.772;39.872;2022-10-20T17:39:44;6.10;;;4.22;;
75682;SDS011;64295;44.772;39.872;2022-10-20T17:42:10;5.28;;;3.67;;